Погода Гореновкана 2 недели

Минская область, Белоруссия

22 мая-04 июня
  • 22мая
    Сегодня
    +12°
    +22°
    Небольшая облачность
    ВремяПогодаТемператураВлажностьДавлениеВетер, м/сВероятность осадков
    00:00Пасмурно, дождь+13°C92 %742 мм3.4 м/с29 %
    03:00Облачно с прояснениями+13°C95 %742 мм2.9 м/с39 %
    06:00Практически безоблачно+12°C93 %742 мм5.0 м/с28 %
    09:00Практически безоблачно+17°C80 %743 мм3.7 м/с2 %
    12:00Небольшая облачность+20°C63 %743 мм5.2 м/с25 %
    15:00Небольшая облачность+22°C56 %742 мм5.3 м/с35 %
    18:00Небольшая облачность+21°C60 %742 мм4.3 м/с28 %
    21:00Облачно с прояснениями+17°C82 %743 мм4.1 м/с31 %
  • 23мая
    Четверг
    +12°
    +23°
    Небольшая облачность
    ВремяПогодаТемператураВлажностьДавлениеВетер, м/сВероятность осадков
    00:00Небольшая облачность+15°C88 %743 мм3.3 м/с11 %
    03:00Облачно с прояснениями+13°C94 %743 мм3.4 м/с4 %
    06:00Небольшая облачность+12°C94 %743 мм4.1 м/с8 %
    09:00Небольшая облачность+18°C85 %744 мм4.9 м/с5 %
    12:00Практически безоблачно+22°C62 %745 мм6.2 м/с26 %
    15:00Небольшая облачность+23°C60 %745 мм6.1 м/с40 %
    18:00Облачно с прояснениями, небольшой дождь+22°C58 %745 мм5.6 м/с51 %
    21:00Практически безоблачно+19°C75 %746 мм4.3 м/с16 %
  • 24мая
    Пятница
    +11°
    +24°
    Небольшая облачность
    ВремяПогодаТемператураВлажностьДавлениеВетер, м/сВероятность осадков
    00:00Ясно и безоблачно+15°C82 %746 мм4.6 м/с3 %
    03:00Ясно и безоблачно+14°C85 %747 мм4.5 м/с1 %
    06:00Ясно и безоблачно+13°C79 %748 мм5.0 м/с1 %
    09:00Ясно и безоблачно+18°C65 %748 мм5.3 м/с2 %
    12:00Ясно и безоблачно+21°C58 %749 мм5.4 м/с3 %
    15:00Небольшая облачность+23°C52 %748 мм6.2 м/с12 %
    18:00Облачно с прояснениями+23°C53 %748 мм6.2 м/с26 %
    21:00Облачно с прояснениями+18°C62 %748 мм4.3 м/с6 %
  • 25мая
    Суббота
    +10°
    +24°
    Облачно с прояснениями
    ВремяПогодаТемператураВлажностьДавлениеВетер, м/сВероятность осадков
    00:00Небольшая облачность+15°C67 %748 мм4.5 м/с2 %
    03:00Небольшая облачность+13°C72 %748 мм4.0 м/с2 %
    06:00Облачно с прояснениями+11°C74 %747 мм3.9 м/с6 %
    09:00Облачно с прояснениями+18°C64 %748 мм4.2 м/с9 %
    12:00Облачно с прояснениями+22°C55 %748 мм4.7 м/с17 %
    15:00Облачно с прояснениями+24°C50 %747 мм5.7 м/с28 %
    18:00Облачно с прояснениями+23°C48 %747 мм4.5 м/с34 %
    21:00Облачно с прояснениями+19°C58 %746 мм3.7 м/с15 %
  • 26мая
    Воскресенье
    +10°
    +24°
    Ясно и безоблачно
    ВремяПогодаТемператураВлажностьДавлениеВетер, м/сВероятность осадков
    00:00Облачно с прояснениями+14°C57 %747 мм3.6 м/с6 %
    03:00Небольшая облачность+12°C60 %747 мм3.0 м/с12 %
    06:00Облачно с прояснениями+11°C69 %747 мм2.6 м/с10 %
    09:00Облачно с прояснениями+17°C60 %748 мм2.8 м/с9 %
    12:00Небольшая облачность+22°C37 %748 мм4.0 м/с9 %
    15:00Ясно и безоблачно+23°C36 %748 мм4.2 м/с14 %
    18:00Небольшая облачность+24°C39 %747 мм3.9 м/с16 %
    21:00Ясно и безоблачно+18°C62 %747 мм2.3 м/с8 %
Мы используем cookies
Соглашаюсь